Latest Weather Observations for Williamtown

IDN60801

Issued at 9:02 am EDT Thursday 19 January 2017 (issued every 30 minutes, with the page automatically refreshed every 10 minutes)

About weather observations | Map of weather stations | Latest weather observations for NSW | Other Formats
Station Details ID: 061078 Name: WILLIAMTOWN RAAF Lat: -32.79 Lon: 151.84 Height: 7.5 m
Data from the previous 72 hours. | See also: Recent months at Williamtown
Date/Time
EDT
Temp
°C
App
Temp
°C
Dew
Point
°C
Rel
Hum
%
Delta-T
°C
Wind Press
QNH
hPa
Press
MSL
hPa
Rain since
9am
mm
Dir  Spd
km/h
Gust
km/h
Spd
kts
Gust
kts
19/08:30am 20.3 20.5 17.7 85 1.6 SSE 13 17 7 9 1014.8 1014.7 0.6
19/08:20am 20.6 20.6 18.0 85 1.6 SE 15 19 8 10 1014.9 1014.8 0.6
19/08:00am 21.3 20.7 16.7 75 2.8 SSE 15 20 8 11 1014.7 1014.6 0.6
19/07:30am 21.2 20.4 17.0 77 2.6 ESE 17 20 9 11 1014.4 1014.3 0.6
19/07:00am 21.8 22.1 15.9 69 3.5 SSE 9 13 5 7 1014.0 1013.9 0.6
19/06:30am 21.2 21.6 16.2 73 3.0 SW 9 11 5 6 1013.8 1013.7 0.6
19/06:00am 21.2 21.5 16.0 72 3.1 WSW 9 11 5 6 1013.5 1013.4 0.6
19/05:30am 21.4 21.2 15.7 70 3.4 S 11 17 6 9 1013.4 1013.3 0.6
19/05:00am 21.8 21.2 15.6 68 3.7 S 13 20 7 11 1013.4 1013.3 0.6
19/04:30am 21.7 21.0 15.5 68 3.7 S 13 17 7 9 1013.1 1013.0 0.6
19/04:00am 21.5 20.4 15.3 68 3.7 S 15 19 8 10 1013.0 1012.9 0.6
19/03:30am 21.3 20.8 15.8 71 3.3 S 13 17 7 9 1013.1 1013.0 0.6
19/03:00am 21.2 20.2 16.6 75 2.8 S 17 20 9 11 1013.1 1013.0 0.6
19/02:30am 20.6 19.8 17.0 80 2.2 S 17 26 9 14 1013.5 1013.4 0.6
19/02:14am 20.0 20.5 18.3 90 1.1 S 13 17 7 9 1013.7 1013.6 0.6
19/02:00am 19.8 18.6 18.5 92 0.8 SSE 22 30 12 16 1013.9 1013.8 0.6
19/01:35am 20.5 18.9 18.4 88 1.3 S 24 39 13 21 1013.9 1013.8 0.6
19/01:30am 22.0 20.9 17.8 77 2.6 SSE 20 28 11 15 1013.9 1013.8 0.6
19/01:00am 22.1 21.7 18.1 78 2.5 SSE 17 26 9 14 1013.9 1013.8 0.6
19/12:30am 22.2 21.6 18.4 79 2.4 SSE 19 26 10 14 1014.1 1014.0 0.6
19/12:00am 22.1 21.4 18.7 81 2.1 SSE 20 28 11 15 1014.3 1014.2 0.6
 
Date/Time
EDT
Temp
°C
App
Temp
°C
Dew
Point
°C
Rel
Hum
%
Delta-T
°C
Wind Press
QNH
hPa
Press
MSL
hPa
Rain since
9am
mm
Dir  Spd
km/h
Gust
km/h
Spd
kts
Gust
kts
18/11:30pm 22.0 21.7 19.2 84 1.8 S 19 30 10 16 1014.4 1014.3 0.6
18/11:00pm 21.9 22.3 19.1 84 1.8 SSE 15 19 8 10 1014.5 1014.4 0.6
18/10:30pm 21.5 21.1 19.4 88 1.3 SSE 20 26 11 14 1014.8 1014.7 0.6
18/10:03pm 20.9 19.9 19.6 92 0.8 S 24 33 13 18 1014.8 1014.7 0.6
18/10:00pm 20.8 19.8 19.6 93 0.8 S 24 32 13 17 1014.7 1014.6 0.6
18/09:56pm 20.9 20.0 19.9 94 0.6 S 24 33 13 18 1014.8 1014.7 0.6
18/09:43pm 21.1 19.9 20.1 94 0.6 S 26 35 14 19 1014.8 1014.7 0.6
18/09:41pm 21.1 19.5 20.1 94 0.6 S 28 37 15 20 1014.7 1014.6 0.6
18/09:30pm 21.4 19.6 20.4 94 0.6 S 30 41 16 22 1014.4 1014.3 0.6
18/09:18pm 22.0 19.9 20.5 91 1.0 S 32 41 17 22 1014.2 1014.1 0.4
18/09:17pm 22.1 19.9 20.4 90 1.1 S 32 43 17 23 1014.2 1014.1 0.4
18/09:00pm 23.9 23.2 19.6 77 2.8 SSE 22 30 12 16 1013.7 1013.6 0.4
18/08:30pm 23.9 22.9 19.6 77 2.8 SSE 24 35 13 19 1012.9 1012.8 0.4
18/08:00pm 24.6 24.3 20.3 77 2.8 SSE 22 32 12 17 1011.7 1011.6 0.2
18/07:30pm 24.6 24.3 20.3 77 2.8 S 22 30 12 16 1011.1 1011.0 0.2
18/07:00pm 25.0 22.9 20.5 76 2.9 SSE 32 41 17 22 1009.4 1009.3 0.2
18/06:30pm 25.7 23.6 20.5 73 3.4 SSE 32 39 17 21 1008.9 1008.8 0.2
18/06:00pm 26.7 24.6 20.5 69 4.1 SSE 32 39 17 21 1007.6 1007.6 0.2
18/05:30pm 27.4 26.4 21.2 69 4.1 S 28 39 15 21 1007.1 1007.1 0.2
18/05:00pm 26.5 25.4 21.7 75 3.2 S 30 37 16 20 1006.4 1006.4 0.2
18/04:57pm 26.6 25.7 22.2 77 3.0 S 30 46 16 25 1006.2 1006.2 0.2
18/04:49pm 27.4 26.3 22.8 76 3.1 S 33 46 18 25 1005.8 1005.8 0.2
18/04:30pm 26.1 24.7 22.2 79 2.6 S 33 54 18 29 1005.1 1005.1 0.2
18/04:25pm 26.7 25.6 22.8 79 2.6 S 33 54 18 29 1005.1 1005.1 0.2
18/04:16pm 25.8 24.7 22.9 84 2.0 SSW 33 41 18 22 1005.7 1005.7 0.2
18/04:00pm 26.8 26.7 25.2 91 1.1 S 35 48 19 26 1004.7 1004.7 0.2
18/03:44pm 28.2 26.9 22.4 71 3.9 S 33 48 18 26 1005.1 1005.1 0.0
18/03:30pm 28.1 26.9 22.3 70 3.9 S 32 44 17 24 1004.9 1004.9 0.0
18/03:00pm 29.9 29.8 22.9 66 4.8 SSE 28 41 15 22 1004.6 1004.6 0.0
18/02:30pm 31.1 30.2 22.1 58 6.1 SSE 30 33 16 18 1004.4 1004.4 0.0
18/02:17pm 30.9 30.1 21.7 58 6.2 SSE 28 39 15 21 1004.3 1004.3 0.0
18/02:00pm 34.7 36.0 21.7 46 8.9 SE 17 24 9 13 1004.2 1004.2 0.0
18/01:51pm 35.8 33.5 20.1 40 10.5 W 32 46 17 25 1004.4 1004.4 0.0
18/01:49pm 38.3 34.8 18.7 31 13.0 W 35 50 19 27 1004.6 1004.6 0.0
18/01:32pm 41.3 35.2 15.3 22 16.6 WNW 41 61 22 33 1004.2 1004.2 0.0
18/01:30pm 40.5 34.8 15.3 22 16.0 WNW 39 56 21 30 1004.3 1004.3 0.0
18/01:05pm 40.3 33.5 15.8 23 15.7 WNW 46 65 25 35 1004.3 1004.3 0.0
18/01:00pm 41.5 33.8 15.5 22 16.7 WNW 50 65 27 35 1004.2 1004.2 0.0
18/12:30pm 39.9 31.7 16.1 24 15.3 WNW 54 70 29 38 1004.3 1004.3 0.0
18/12:03pm 40.1 33.0 16.9 25 15.1 NW 50 69 27 37 1004.8 1004.8 0.0
18/12:00pm 39.7 31.4 16.0 25 15.2 NW 54 69 29 37 1004.7 1004.7 0.0
18/11:30am 39.4 33.3 16.3 25 14.9 WNW 43 63 23 34 1005.1 1005.1 0.0
18/11:00am 38.1 31.7 15.8 26 14.2 WNW 44 69 24 37 1005.5 1005.5 0.0
18/10:30am 38.5 31.6 15.6 26 14.5 WNW 46 61 25 33 1005.7 1005.7 0.0
18/10:00am 37.8 30.7 15.0 26 14.4 NW 46 67 25 36 1005.7 1005.7 0.0
18/09:30am 36.5 29.2 15.6 29 13.2 WNW 48 70 26 38 1006.1 1006.1 0.0
18/09:13am 35.5 29.1 15.8 31 12.4 WNW 44 69 24 37 1006.3 1006.3 0.0
18/09:00am 35.7 30.4 16.4 31 12.3 WNW 39 56 21 30 1006.3 1006.3 0.0
18/08:53am 35.8 31.3 16.5 31 12.3 WNW 35 54 19 29 1006.3 1006.3 0.0
18/08:30am 35.8 31.0 16.5 31 12.3 WNW 37 48 20 26 1006.4 1006.4 0.0
18/08:00am 34.5 29.8 16.8 34 11.3 WNW 37 50 20 27 1006.3 1006.3 0.0
18/07:30am 33.1 29.0 16.5 37 10.5 WNW 33 41 18 22 1006.1 1006.1 0.0
18/07:00am 32.3 28.5 15.7 36 10.4 WNW 30 37 16 20 1005.8 1005.8 0.0
18/06:30am 31.5 27.6 15.5 38 9.9 WNW 30 46 16 25 1005.6 1005.6 0.0
18/06:00am 31.4 28.0 15.8 39 9.7 WNW 28 35 15 19 1005.3 1005.3 0.0
18/05:30am 30.4 29.2 17.1 44 8.4 WNW 19 26 10 14 1005.1 1005.1 0.0
18/05:00am 27.8 29.5 20.1 63 5.1 NW 11 13 6 7 1004.9 1004.9 0.0
18/04:30am 27.8 31.4 22.3 72 3.7 NNW 7 11 4 6 1004.6 1004.6 0.0
18/04:00am 27.5 30.4 21.1 68 4.3 NNW 7 9 4 5 1004.7 1004.7 0.0
18/03:30am 27.6 30.1 20.2 64 4.8 NNW 7 7 4 4 1005.0 1005.0 0.0
18/03:00am 28.3 30.4 20.1 61 5.4 N 9 11 5 6 1005.3 1005.3 0.0
18/02:30am 28.7 30.8 20.2 60 5.6 N 9 13 5 7 1005.5 1005.5 0.0
18/02:00am 28.9 31.1 20.4 60 5.6 N 9 13 5 7 1005.8 1005.8 0.0
18/01:30am 29.1 31.3 20.3 59 5.8 N 9 13 5 7 1006.0 1006.0 0.0
18/01:00am 29.5 31.7 20.4 58 6.0 N 9 11 5 6 1006.3 1006.3 0.0
18/12:30am 30.1 31.5 20.4 56 6.4 N 13 17 7 9 1006.6 1006.6 0.0
18/12:00am 30.3 31.5 20.0 54 6.8 N 13 20 7 11 1006.9 1006.9 0.0
 
Date/Time
EDT
Temp
°C
App
Temp
°C
Dew
Point
°C
Rel
Hum
%
Delta-T
°C
Wind Press
QNH
hPa
Press
MSL
hPa
Rain since
9am
mm
Dir  Spd
km/h
Gust
km/h
Spd
kts
Gust
kts
17/11:30pm 30.9 31.3 19.9 52 7.2 NNE 17 24 9 13 1007.2 1007.2 0.0
17/11:00pm 31.2 31.8 19.5 49 7.7 NNE 15 20 8 11 1007.6 1007.6 0.0
17/10:30pm 31.0 31.8 19.0 48 7.8 NNE 13 19 7 10 1007.9 1007.9 0.0
17/10:00pm 31.4 31.9 18.4 46 8.4 NNE 13 19 7 10 1008.1 1008.1 0.0
17/09:30pm 32.1 32.0 17.9 42 9.1 NNE 15 19 8 10 1008.1 1008.1 0.0
17/09:00pm 32.7 32.2 17.7 40 9.6 NE 17 24 9 13 1007.9 1007.9 0.0
17/08:30pm 33.2 32.3 17.8 40 9.9 NNE 19 28 10 15 1007.7 1007.7 0.0
17/08:00pm 33.6 33.2 18.9 41 9.6 NE 19 30 10 16 1007.5 1007.5 0.0
17/07:30pm 34.8 34.1 19.6 40 10.1 NE 22 35 12 19 1007.5 1007.5 0.0
17/07:00pm 34.8 34.5 20.4 43 9.7 NE 22 32 12 17 1007.4 1007.4 0.0
17/06:30pm 35.0 35.2 20.2 42 9.9 NE 19 30 10 16 1007.3 1007.3 0.0
17/06:00pm 35.3 35.0 19.6 39 10.4 NE 20 32 11 17 1007.2 1007.2 0.0
17/05:30pm 35.9 35.1 19.3 37 11.0 ENE 22 32 12 17 1007.2 1007.2 0.0
17/05:00pm 35.3 34.3 19.6 39 10.4 ENE 24 32 13 17 1007.4 1007.4 0.0
17/04:30pm 36.5 34.3 18.6 35 11.8 ENE 28 33 15 18 1007.8 1007.8 0.0
17/04:00pm 39.6 40.1 19.3 30 13.6 N 15 28 8 15 1008.0 1008.0 0.0
17/03:30pm 40.2 37.6 13.7 21 16.5 WNW 20 35 11 19 1008.5 1008.4 0.0
17/03:00pm 39.8 39.0 16.1 25 15.2 NNW 15 32 8 17 1008.9 1008.8 0.0
17/02:30pm 39.3 36.4 16.2 25 14.8 WNW 26 35 14 19 1009.4 1009.3 0.0
17/02:00pm 38.9 36.6 17.6 28 13.9 WNW 26 37 14 20 1009.9 1009.8 0.0
17/01:30pm 38.3 34.9 17.7 30 13.4 W 32 43 17 23 1010.4 1010.3 0.0
17/01:00pm 36.7 33.4 18.3 34 12.1 WNW 33 46 18 25 1011.0 1010.9 0.0
17/12:30pm 36.4 32.9 18.0 33 12.0 WNW 33 48 18 26 1011.6 1011.5 0.0
17/12:00pm 34.8 33.8 19.6 40 10.1 WNW 24 32 13 17 1012.4 1012.3 0.0
17/11:30am 33.6 34.3 19.7 44 9.2 NW 15 30 8 16 1012.9 1012.8 0.0
17/11:00am 31.4 32.8 20.4 52 7.3 NW 13 19 7 10 1013.3 1013.2 0.0
17/10:30am 30.2 31.5 20.2 55 6.6 NW 13 19 7 10 1013.5 1013.4 0.0
17/10:00am 27.8 30.0 20.4 64 4.9 NW 9 13 5 7 1013.9 1013.8 0.0
17/09:30am 26.7 28.8 20.1 67 4.3 NNW 9 15 5 8 1014.2 1014.1 0.0
17/09:00am 24.6 26.1 19.7 74 3.2 NW 11 13 6 7 1014.4 1014.3 0.0
17/08:30am 22.9 24.3 19.5 81 2.2 NW 11 13 6 7 1014.4 1014.3 0.0
17/08:00am 21.8 23.8 19.9 89 1.2 NW 9 11 5 6 1014.4 1014.3 0.0
17/07:30am 20.9 23.5 20.4 97 0.3 NW 7 9 4 5 1014.3 1014.2 0.0
17/07:00am 19.4 21.8 18.7 96 0.4 ESE 4 6 2 3 1013.9 1013.8 0.0
17/06:30am 17.4 19.6 16.4 94 0.6 CALM 0 0 0 0 1013.9 1013.8 0.0
17/06:00am 17.2 18.9 16.2 94 0.6 WSW 2 6 1 3 1013.5 1013.4 0.0
17/05:30am 17.7 18.8 17.1 96 0.4 WSW 7 11 4 6 1013.4 1013.3 0.0
17/05:00am 17.3 18.8 16.7 96 0.4 WSW 4 9 2 5 1013.0 1012.9 0.0
17/04:52am 17.6 18.9 17.0 96 0.4 WSW 6 9 3 5 1012.8 1012.7 0.0
17/04:30am 18.0 20.6 17.4 96 0.4 CALM 0 0 0 0 1012.6 1012.5 0.0
17/04:12am 16.8 18.5 15.3 91 0.9 CALM 0 0 0 0 1012.7 1012.6 0.0
17/04:00am 17.7 19.9 16.4 92 0.8 CALM 0 0 0 0 1012.6 1012.5 0.0
17/03:30am 18.0 20.3 16.7 92 0.8 CALM 0 0 0 0 1012.7 1012.6 0.0
17/03:00am 18.8 21.4 17.5 92 0.8 CALM 0 0 0 0 1013.0 1012.9 0.0
17/02:30am 19.2 20.6 17.7 91 0.9 SSE 7 7 4 4 1013.1 1013.0 0.0
17/02:00am 21.2 23.5 19.5 90 1.1 ENE 6 9 3 5 1013.3 1013.2 0.0
17/01:30am 21.5 23.3 19.6 89 1.2 ENE 9 13 5 7 1013.4 1013.3 0.0
17/01:00am 22.0 23.0 19.5 86 1.6 NE 13 17 7 9 1013.7 1013.6 0.0
17/12:30am 22.3 23.0 19.7 85 1.7 NE 15 22 8 12 1014.1 1014.0 0.0
17/12:00am 22.4 23.1 19.6 84 1.8 NE 15 24 8 13 1014.4 1014.3 0.0
 
Date/Time
EDT
Temp
°C
App
Temp
°C
Dew
Point
°C
Rel
Hum
%
Delta-T
°C
Wind Press
QNH
hPa
Press
MSL
hPa
Rain since
9am
mm
Dir  Spd
km/h
Gust
km/h
Spd
kts
Gust
kts
16/11:30pm 22.7 22.6 19.5 82 2.0 NE 19 26 10 14 1014.6 1014.5 0.0
16/11:00pm 22.9 23.2 19.5 81 2.2 NE 17 26 9 14 1014.8 1014.7 0.0
16/10:30pm 23.1 23.3 19.3 79 2.4 NE 17 26 9 14 1015.0 1014.9 0.0
16/10:00pm 23.4 23.5 19.1 77 2.7 NE 17 28 9 15 1015.1 1015.0 0.0
16/09:30pm 23.7 24.1 19.0 75 3.0 NE 15 22 8 12 1014.8 1014.7 0.0
16/09:00pm 24.1 23.7 19.0 73 3.2 NE 19 28 10 15 1014.6 1014.5 0.0
16/08:30pm 24.2 23.9 19.1 73 3.3 ENE 19 30 10 16 1014.3 1014.2 0.0
16/08:00pm 24.4 23.4 18.8 71 3.6 ENE 22 30 12 16 1014.0 1013.9 0.0
16/07:30pm 25.0 23.3 18.2 66 4.3 ENE 24 35 13 19 1013.8 1013.7 0.0
16/07:00pm 25.7 23.5 17.9 62 4.9 ENE 26 35 14 19 1013.6 1013.5 0.0
16/06:30pm 26.4 23.4 17.7 58 5.5 ENE 30 46 16 25 1013.3 1013.2 0.0
16/06:00pm 27.0 24.4 17.8 57 5.8 ENE 28 39 15 21 1013.0 1012.9 0.0
16/05:30pm 27.3 24.4 18.0 56 5.9 ENE 30 41 16 22 1012.9 1012.8 0.0
16/05:00pm 27.6 24.3 18.0 55 6.1 ENE 32 39 17 21 1012.9 1012.8 0.0
16/04:30pm 28.0 25.5 18.1 55 6.3 ENE 28 41 15 22 1013.1 1013.0 0.0
16/04:00pm 27.8 24.5 17.9 54 6.3 ENE 32 46 17 25 1013.1 1013.0 0.0
16/03:30pm 28.0 24.2 18.1 55 6.3 ENE 35 46 19 25 1013.1 1013.0 0.0
16/03:00pm 29.0 25.8 18.1 51 7.0 ENE 32 41 17 22 1013.5 1013.4 0.0
16/02:30pm 28.9 25.4 17.4 49 7.3 ENE 32 46 17 25 1013.8 1013.7 0.0
16/02:00pm 28.7 25.6 17.6 51 7.0 ENE 30 39 16 21 1014.2 1014.1 0.0
16/01:30pm 29.5 26.9 17.7 49 7.5 ENE 28 37 15 20 1014.6 1014.5 0.0
16/01:00pm 28.9 26.4 17.1 49 7.4 ENE 26 35 14 19 1015.0 1014.9 0.0
16/12:30pm 28.8 27.9 17.7 51 7.0 ENE 19 32 10 17 1015.3 1015.2 0.0
16/12:00pm 27.6 25.7 17.7 54 6.2 ENE 24 33 13 18 1015.7 1015.6 0.0
16/11:30am 27.8 27.1 17.3 52 6.6 ENE 17 26 9 14 1016.0 1015.9 0.0
16/11:00am 27.6 26.7 16.9 52 6.7 NE 17 26 9 14 1016.2 1016.1 0.0
16/10:30am 26.5 24.9 16.4 53 6.2 NE 20 33 11 18 1016.3 1016.2 0.0
16/10:00am 26.5 26.0 17.8 58 5.5 ENE 17 32 9 17 1016.4 1016.3 0.0
16/09:30am 25.8 24.7 17.7 61 5.1 NE 20 30 11 16 1016.7 1016.6 0.0

Other Formats:

Comma delimited format used in spreadsheet applications
http://www.bom.gov.au/fwo/IDN60801/IDN60801.94776.axf

JavaScript Object Notation format (JSON) in row-major order
http://www.bom.gov.au/fwo/IDN60801/IDN60801.94776.json